sensor_id;sensor_type;location;lat;lon;timestamp;P1;durP1;ratioP1;P2;durP2;ratioP2
85646;SDS011;76070;51.580;4.342;2024-03-06T00:02:13;28.15;;;14.18;;
85646;SDS011;76070;51.580;4.342;2024-03-06T00:04:39;22.10;;;12.13;;
85646;SDS011;76070;51.580;4.342;2024-03-06T00:07:06;26.20;;;13.58;;
85646;SDS011;76070;51.580;4.342;2024-03-06T00:09:32;22.22;;;12.30;;
85646;SDS011;76070;51.580;4.342;2024-03-06T00:11:59;24.12;;;12.98;;
85646;SDS011;76070;51.580;4.342;2024-03-06T00:14:26;19.85;;;10.63;;
85646;SDS011;76070;51.580;4.342;2024-03-06T00:16:52;22.48;;;10.58;;
85646;SDS011;76070;51.580;4.342;2024-03-06T00:19:21;18.67;;;10.63;;
85646;SDS011;76070;51.580;4.342;2024-03-06T00:21:48;22.60;;;11.95;;
85646;SDS011;76070;51.580;4.342;2024-03-06T00:24:15;23.67;;;11.08;;
85646;SDS011;76070;51.580;4.342;2024-03-06T00:26:42;22.32;;;11.40;;
85646;SDS011;76070;51.580;4.342;2024-03-06T00:29:09;26.87;;;12.70;;
85646;SDS011;76070;51.580;4.342;2024-03-06T00:31:36;27.55;;;12.13;;
85646;SDS011;76070;51.580;4.342;2024-03-06T00:34:09;27.42;;;12.85;;
85646;SDS011;76070;51.580;4.342;2024-03-06T00:36:37;31.95;;;13.98;;
85646;SDS011;76070;51.580;4.342;2024-03-06T00:39:03;26.07;;;12.47;;
85646;SDS011;76070;51.580;4.342;2024-03-06T00:41:30;27.32;;;13.10;;
85646;SDS011;76070;51.580;4.342;2024-03-06T00:43:58;28.57;;;14.47;;
85646;SDS011;76070;51.580;4.342;2024-03-06T00:46:25;33.73;;;15.32;;
85646;SDS011;76070;51.580;4.342;2024-03-06T00:48:51;32.75;;;14.53;;
85646;SDS011;76070;51.580;4.342;2024-03-06T00:51:18;27.62;;;14.85;;
85646;SDS011;76070;51.580;4.342;2024-03-06T00:53:44;26.95;;;13.18;;
85646;SDS011;76070;51.580;4.342;2024-03-06T00:56:11;33.38;;;13.58;;
85646;SDS011;76070;51.580;4.342;2024-03-06T00:58:38;27.93;;;12.40;;
85646;SDS011;76070;51.580;4.342;2024-03-06T01:01:04;31.25;;;13.53;;
85646;SDS011;76070;51.580;4.342;2024-03-06T01:03:31;25.48;;;12.78;;
85646;SDS011;76070;51.580;4.342;2024-03-06T01:05:57;26.93;;;13.68;;
85646;SDS011;76070;51.580;4.342;2024-03-06T01:08:24;33.78;;;13.93;;
85646;SDS011;76070;51.580;4.342;2024-03-06T01:10:51;31.52;;;15.18;;
85646;SDS011;76070;51.580;4.342;2024-03-06T01:13:18;29.25;;;14.23;;
85646;SDS011;76070;51.580;4.342;2024-03-06T01:15:44;33.65;;;15.63;;
85646;SDS011;76070;51.580;4.342;2024-03-06T01:18:11;43.75;;;16.15;;
85646;SDS011;76070;51.580;4.342;2024-03-06T01:20:38;29.52;;;13.78;;
85646;SDS011;76070;51.580;4.342;2024-03-06T01:23:05;29.98;;;14.05;;
85646;SDS011;76070;51.580;4.342;2024-03-06T01:25:32;29.02;;;13.98;;
85646;SDS011;76070;51.580;4.342;2024-03-06T01:27:58;30.48;;;13.40;;
85646;SDS011;76070;51.580;4.342;2024-03-06T01:30:25;34.23;;;13.98;;
85646;SDS011;76070;51.580;4.342;2024-03-06T01:32:51;31.20;;;13.50;;
85646;SDS011;76070;51.580;4.342;2024-03-06T01:35:18;28.95;;;13.68;;
85646;SDS011;76070;51.580;4.342;2024-03-06T01:37:45;25.82;;;13.13;;
85646;SDS011;76070;51.580;4.342;2024-03-06T01:40:11;23.35;;;12.30;;
85646;SDS011;76070;51.580;4.342;2024-03-06T01:42:38;30.35;;;15.10;;
85646;SDS011;76070;51.580;4.342;2024-03-06T01:45:05;37.13;;;13.90;;
85646;SDS011;76070;51.580;4.342;2024-03-06T01:47:32;37.42;;;15.65;;
85646;SDS011;76070;51.580;4.342;2024-03-06T01:49:59;40.40;;;16.15;;
85646;SDS011;76070;51.580;4.342;2024-03-06T01:52:33;44.70;;;17.30;;
85646;SDS011;76070;51.580;4.342;2024-03-06T01:54:59;44.20;;;19.70;;
85646;SDS011;76070;51.580;4.342;2024-03-06T01:57:26;48.78;;;21.12;;
85646;SDS011;76070;51.580;4.342;2024-03-06T01:59:52;53.65;;;20.90;;
85646;SDS011;76070;51.580;4.342;2024-03-06T02:02:19;61.98;;;21.73;;
85646;SDS011;76070;51.580;4.342;2024-03-06T02:04:46;51.70;;;19.95;;
85646;SDS011;76070;51.580;4.342;2024-03-06T02:07:13;47.13;;;22.07;;
85646;SDS011;76070;51.580;4.342;2024-03-06T02:09:40;52.60;;;22.10;;
85646;SDS011;76070;51.580;4.342;2024-03-06T02:12:07;41.90;;;18.80;;
85646;SDS011;76070;51.580;4.342;2024-03-06T02:14:35;42.88;;;19.75;;
85646;SDS011;76070;51.580;4.342;2024-03-06T02:17:02;38.23;;;18.37;;
85646;SDS011;76070;51.580;4.342;2024-03-06T02:19:41;43.60;;;19.00;;
85646;SDS011;76070;51.580;4.342;2024-03-06T02:22:08;33.73;;;17.00;;
85646;SDS011;76070;51.580;4.342;2024-03-06T02:24:35;31.52;;;15.65;;
85646;SDS011;76070;51.580;4.342;2024-03-06T02:27:02;37.90;;;18.92;;
85646;SDS011;76070;51.580;4.342;2024-03-06T02:29:31;40.12;;;19.48;;
85646;SDS011;76070;51.580;4.342;2024-03-06T02:31:58;41.77;;;19.60;;
85646;SDS011;76070;51.580;4.342;2024-03-06T02:34:26;46.98;;;19.57;;
85646;SDS011;76070;51.580;4.342;2024-03-06T02:36:53;45.15;;;22.30;;
85646;SDS011;76070;51.580;4.342;2024-03-06T02:39:19;43.25;;;22.07;;
85646;SDS011;76070;51.580;4.342;2024-03-06T02:41:46;51.42;;;23.62;;
85646;SDS011;76070;51.580;4.342;2024-03-06T02:44:14;45.05;;;22.00;;
85646;SDS011;76070;51.580;4.342;2024-03-06T02:46:46;48.75;;;22.20;;
85646;SDS011;76070;51.580;4.342;2024-03-06T02:49:10;50.38;;;22.95;;
85646;SDS011;76070;51.580;4.342;2024-03-06T02:51:37;58.75;;;26.23;;
85646;SDS011;76070;51.580;4.342;2024-03-06T02:54:04;55.52;;;23.38;;
85646;SDS011;76070;51.580;4.342;2024-03-06T02:56:30;64.62;;;27.02;;
85646;SDS011;76070;51.580;4.342;2024-03-06T02:58:57;64.42;;;26.57;;
85646;SDS011;76070;51.580;4.342;2024-03-06T03:01:23;56.05;;;25.00;;
85646;SDS011;76070;51.580;4.342;2024-03-06T03:03:50;59.98;;;25.65;;
85646;SDS011;76070;51.580;4.342;2024-03-06T03:06:17;56.00;;;24.60;;
85646;SDS011;76070;51.580;4.342;2024-03-06T03:08:43;53.83;;;26.37;;
85646;SDS011;76070;51.580;4.342;2024-03-06T03:11:10;60.03;;;26.10;;
85646;SDS011;76070;51.580;4.342;2024-03-06T03:13:36;46.88;;;22.32;;
85646;SDS011;76070;51.580;4.342;2024-03-06T03:16:03;48.05;;;23.80;;
85646;SDS011;76070;51.580;4.342;2024-03-06T03:18:30;38.23;;;22.50;;
85646;SDS011;76070;51.580;4.342;2024-03-06T03:20:56;39.33;;;22.87;;
85646;SDS011;76070;51.580;4.342;2024-03-06T03:23:23;43.73;;;22.05;;
85646;SDS011;76070;51.580;4.342;2024-03-06T03:25:49;48.92;;;22.95;;
85646;SDS011;76070;51.580;4.342;2024-03-06T03:28:16;43.73;;;22.27;;
85646;SDS011;76070;51.580;4.342;2024-03-06T03:30:43;45.38;;;23.27;;
85646;SDS011;76070;51.580;4.342;2024-03-06T03:33:10;46.83;;;23.85;;
85646;SDS011;76070;51.580;4.342;2024-03-06T03:35:36;44.10;;;22.75;;
85646;SDS011;76070;51.580;4.342;2024-03-06T03:38:03;40.83;;;22.22;;
85646;SDS011;76070;51.580;4.342;2024-03-06T03:40:30;37.85;;;22.40;;
85646;SDS011;76070;51.580;4.342;2024-03-06T03:42:58;43.92;;;23.55;;
85646;SDS011;76070;51.580;4.342;2024-03-06T03:45:26;44.60;;;23.07;;
85646;SDS011;76070;51.580;4.342;2024-03-06T03:47:53;40.85;;;23.47;;
85646;SDS011;76070;51.580;4.342;2024-03-06T03:50:19;48.25;;;23.60;;
85646;SDS011;76070;51.580;4.342;2024-03-06T03:52:46;42.13;;;23.45;;
85646;SDS011;76070;51.580;4.342;2024-03-06T03:55:12;39.42;;;21.90;;
85646;SDS011;76070;51.580;4.342;2024-03-06T03:57:39;38.70;;;20.50;;
85646;SDS011;76070;51.580;4.342;2024-03-06T04:00:06;40.45;;;22.10;;
85646;SDS011;76070;51.580;4.342;2024-03-06T04:02:34;40.88;;;22.27;;
85646;SDS011;76070;51.580;4.342;2024-03-06T04:05:00;38.95;;;21.57;;
85646;SDS011;76070;51.580;4.342;2024-03-06T04:07:27;41.25;;;22.73;;
85646;SDS011;76070;51.580;4.342;2024-03-06T04:09:53;46.40;;;25.05;;
85646;SDS011;76070;51.580;4.342;2024-03-06T04:12:20;52.98;;;29.32;;
85646;SDS011;76070;51.580;4.342;2024-03-06T04:14:46;66.10;;;32.28;;
85646;SDS011;76070;51.580;4.342;2024-03-06T04:17:13;71.00;;;34.43;;
85646;SDS011;76070;51.580;4.342;2024-03-06T04:19:40;61.85;;;27.93;;
85646;SDS011;76070;51.580;4.342;2024-03-06T04:22:07;40.33;;;21.15;;
85646;SDS011;76070;51.580;4.342;2024-03-06T04:24:33;33.30;;;18.70;;
85646;SDS011;76070;51.580;4.342;2024-03-06T04:27:00;35.33;;;18.77;;
85646;SDS011;76070;51.580;4.342;2024-03-06T04:29:26;34.35;;;18.92;;
85646;SDS011;76070;51.580;4.342;2024-03-06T04:31:53;34.18;;;18.35;;
85646;SDS011;76070;51.580;4.342;2024-03-06T04:34:20;37.88;;;20.12;;
85646;SDS011;76070;51.580;4.342;2024-03-06T04:36:48;38.08;;;20.80;;
85646;SDS011;76070;51.580;4.342;2024-03-06T04:42:14;32.50;;;18.37;;
85646;SDS011;76070;51.580;4.342;2024-03-06T04:44:41;38.33;;;19.27;;
85646;SDS011;76070;51.580;4.342;2024-03-06T04:47:08;30.30;;;16.70;;
85646;SDS011;76070;51.580;4.342;2024-03-06T04:49:35;31.45;;;18.92;;
85646;SDS011;76070;51.580;4.342;2024-03-06T04:52:01;33.23;;;18.48;;
85646;SDS011;76070;51.580;4.342;2024-03-06T04:54:28;30.32;;;17.67;;
85646;SDS011;76070;51.580;4.342;2024-03-06T04:56:55;38.98;;;19.17;;
85646;SDS011;76070;51.580;4.342;2024-03-06T04:59:22;30.77;;;18.05;;
85646;SDS011;76070;51.580;4.342;2024-03-06T05:01:48;34.15;;;18.45;;
85646;SDS011;76070;51.580;4.342;2024-03-06T05:04:15;33.83;;;17.12;;
85646;SDS011;76070;51.580;4.342;2024-03-06T05:06:42;37.63;;;19.30;;
85646;SDS011;76070;51.580;4.342;2024-03-06T05:09:08;31.48;;;15.00;;
85646;SDS011;76070;51.580;4.342;2024-03-06T05:11:37;28.62;;;16.20;;
85646;SDS011;76070;51.580;4.342;2024-03-06T05:14:04;24.85;;;14.85;;
85646;SDS011;76070;51.580;4.342;2024-03-06T05:16:31;28.42;;;15.95;;
85646;SDS011;76070;51.580;4.342;2024-03-06T05:18:57;30.40;;;15.85;;
85646;SDS011;76070;51.580;4.342;2024-03-06T05:21:24;31.77;;;18.17;;
85646;SDS011;76070;51.580;4.342;2024-03-06T05:23:50;34.03;;;17.25;;
85646;SDS011;76070;51.580;4.342;2024-03-06T05:26:18;36.25;;;16.62;;
85646;SDS011;76070;51.580;4.342;2024-03-06T05:28:44;31.45;;;17.67;;
85646;SDS011;76070;51.580;4.342;2024-03-06T05:31:17;34.73;;;18.67;;
85646;SDS011;76070;51.580;4.342;2024-03-06T05:33:44;34.33;;;18.73;;
85646;SDS011;76070;51.580;4.342;2024-03-06T05:36:11;33.18;;;18.77;;
85646;SDS011;76070;51.580;4.342;2024-03-06T05:38:39;41.98;;;20.37;;
85646;SDS011;76070;51.580;4.342;2024-03-06T05:41:06;38.58;;;20.45;;
85646;SDS011;76070;51.580;4.342;2024-03-06T05:43:34;39.95;;;22.45;;
85646;SDS011;76070;51.580;4.342;2024-03-06T05:46:01;33.35;;;21.40;;
85646;SDS011;76070;51.580;4.342;2024-03-06T05:48:27;45.40;;;21.23;;
85646;SDS011;76070;51.580;4.342;2024-03-06T05:50:54;47.73;;;21.05;;
85646;SDS011;76070;51.580;4.342;2024-03-06T05:53:20;125.60;;;19.90;;
85646;SDS011;76070;51.580;4.342;2024-03-06T05:55:47;63.85;;;17.07;;
85646;SDS011;76070;51.580;4.342;2024-03-06T05:58:13;52.70;;;19.25;;
85646;SDS011;76070;51.580;4.342;2024-03-06T06:00:41;67.03;;;18.07;;
85646;SDS011;76070;51.580;4.342;2024-03-06T06:03:08;71.20;;;20.05;;
85646;SDS011;76070;51.580;4.342;2024-03-06T06:05:38;55.38;;;18.32;;
85646;SDS011;76070;51.580;4.342;2024-03-06T06:08:05;50.40;;;19.05;;
85646;SDS011;76070;51.580;4.342;2024-03-06T06:10:32;167.65;;;28.87;;
85646;SDS011;76070;51.580;4.342;2024-03-06T06:12:58;110.83;;;28.83;;
85646;SDS011;76070;51.580;4.342;2024-03-06T06:15:25;101.35;;;28.67;;
85646;SDS011;76070;51.580;4.342;2024-03-06T06:17:51;219.13;;;28.90;;
85646;SDS011;76070;51.580;4.342;2024-03-06T06:20:18;151.90;;;26.70;;
85646;SDS011;76070;51.580;4.342;2024-03-06T06:22:45;195.38;;;31.75;;
85646;SDS011;76070;51.580;4.342;2024-03-06T06:25:11;87.17;;;25.32;;
85646;SDS011;76070;51.580;4.342;2024-03-06T06:27:38;77.58;;;22.42;;
85646;SDS011;76070;51.580;4.342;2024-03-06T06:30:05;60.58;;;22.85;;
85646;SDS011;76070;51.580;4.342;2024-03-06T06:32:31;61.48;;;21.05;;
85646;SDS011;76070;51.580;4.342;2024-03-06T06:34:58;44.45;;;19.40;;
85646;SDS011;76070;51.580;4.342;2024-03-06T06:37:33;45.67;;;18.20;;
85646;SDS011;76070;51.580;4.342;2024-03-06T06:40:00;39.33;;;17.65;;
85646;SDS011;76070;51.580;4.342;2024-03-06T06:42:28;32.50;;;15.78;;
85646;SDS011;76070;51.580;4.342;2024-03-06T06:44:55;29.00;;;14.47;;
85646;SDS011;76070;51.580;4.342;2024-03-06T06:47:21;22.35;;;14.50;;
85646;SDS011;76070;51.580;4.342;2024-03-06T06:49:48;32.33;;;14.87;;
85646;SDS011;76070;51.580;4.342;2024-03-06T06:52:14;33.45;;;14.45;;
85646;SDS011;76070;51.580;4.342;2024-03-06T06:54:41;34.90;;;16.07;;
85646;SDS011;76070;51.580;4.342;2024-03-06T06:57:08;41.23;;;15.93;;
85646;SDS011;76070;51.580;4.342;2024-03-06T07:02:34;35.08;;;16.95;;
85646;SDS011;76070;51.580;4.342;2024-03-06T07:05:01;48.33;;;19.15;;
85646;SDS011;76070;51.580;4.342;2024-03-06T07:07:28;56.73;;;22.37;;
85646;SDS011;76070;51.580;4.342;2024-03-06T07:09:55;61.70;;;23.62;;
85646;SDS011;76070;51.580;4.342;2024-03-06T07:12:21;63.48;;;21.73;;
85646;SDS011;76070;51.580;4.342;2024-03-06T07:14:48;50.98;;;24.10;;
85646;SDS011;76070;51.580;4.342;2024-03-06T07:17:14;42.33;;;22.25;;
85646;SDS011;76070;51.580;4.342;2024-03-06T07:19:41;52.20;;;23.35;;
85646;SDS011;76070;51.580;4.342;2024-03-06T07:22:07;42.08;;;22.48;;
85646;SDS011;76070;51.580;4.342;2024-03-06T07:24:34;46.90;;;21.95;;
85646;SDS011;76070;51.580;4.342;2024-03-06T07:27:00;46.68;;;24.35;;
85646;SDS011;76070;51.580;4.342;2024-03-06T07:29:27;52.83;;;24.82;;
85646;SDS011;76070;51.580;4.342;2024-03-06T07:31:54;49.60;;;23.47;;
85646;SDS011;76070;51.580;4.342;2024-03-06T07:34:20;45.58;;;24.18;;
85646;SDS011;76070;51.580;4.342;2024-03-06T07:36:49;64.55;;;26.82;;
85646;SDS011;76070;51.580;4.342;2024-03-06T07:39:16;66.05;;;29.35;;
85646;SDS011;76070;51.580;4.342;2024-03-06T07:41:52;60.85;;;30.62;;
85646;SDS011;76070;51.580;4.342;2024-03-06T07:44:19;71.95;;;31.87;;
85646;SDS011;76070;51.580;4.342;2024-03-06T07:46:45;72.62;;;33.15;;
85646;SDS011;76070;51.580;4.342;2024-03-06T07:49:12;87.22;;;36.95;;
85646;SDS011;76070;51.580;4.342;2024-03-06T07:51:38;87.30;;;38.73;;
85646;SDS011;76070;51.580;4.342;2024-03-06T07:54:06;71.92;;;35.23;;
85646;SDS011;76070;51.580;4.342;2024-03-06T07:56:33;70.15;;;34.73;;
85646;SDS011;76070;51.580;4.342;2024-03-06T07:59:00;65.50;;;34.23;;
85646;SDS011;76070;51.580;4.342;2024-03-06T08:01:26;73.78;;;33.90;;
85646;SDS011;76070;51.580;4.342;2024-03-06T08:03:57;71.75;;;32.90;;
85646;SDS011;76070;51.580;4.342;2024-03-06T08:06:24;69.70;;;33.20;;
85646;SDS011;76070;51.580;4.342;2024-03-06T08:08:50;56.00;;;31.27;;
85646;SDS011;76070;51.580;4.342;2024-03-06T08:11:17;57.13;;;29.48;;
85646;SDS011;76070;51.580;4.342;2024-03-06T08:13:44;54.10;;;28.65;;
85646;SDS011;76070;51.580;4.342;2024-03-06T08:16:10;50.25;;;27.85;;
85646;SDS011;76070;51.580;4.342;2024-03-06T08:21:39;44.05;;;25.45;;
85646;SDS011;76070;51.580;4.342;2024-03-06T08:24:06;52.48;;;27.35;;
85646;SDS011;76070;51.580;4.342;2024-03-06T08:26:32;53.68;;;29.42;;
85646;SDS011;76070;51.580;4.342;2024-03-06T08:28:59;53.45;;;28.65;;
85646;SDS011;76070;51.580;4.342;2024-03-06T08:31:25;54.10;;;29.98;;
85646;SDS011;76070;51.580;4.342;2024-03-06T08:33:52;60.30;;;31.37;;
85646;SDS011;76070;51.580;4.342;2024-03-06T08:36:19;58.20;;;30.27;;
85646;SDS011;76070;51.580;4.342;2024-03-06T08:38:46;54.45;;;28.98;;
85646;SDS011;76070;51.580;4.342;2024-03-06T08:41:13;54.40;;;30.62;;
85646;SDS011;76070;51.580;4.342;2024-03-06T08:43:39;51.73;;;30.55;;
85646;SDS011;76070;51.580;4.342;2024-03-06T08:46:05;57.43;;;31.93;;
85646;SDS011;76070;51.580;4.342;2024-03-06T08:48:32;50.10;;;29.72;;
85646;SDS011;76070;51.580;4.342;2024-03-06T08:50:59;54.13;;;30.02;;
85646;SDS011;76070;51.580;4.342;2024-03-06T08:53:25;55.95;;;28.77;;
85646;SDS011;76070;51.580;4.342;2024-03-06T08:55:52;50.50;;;27.62;;
85646;SDS011;76070;51.580;4.342;2024-03-06T08:58:18;52.60;;;29.10;;
85646;SDS011;76070;51.580;4.342;2024-03-06T09:00:46;47.67;;;25.75;;
85646;SDS011;76070;51.580;4.342;2024-03-06T09:03:14;43.95;;;23.18;;
85646;SDS011;76070;51.580;4.342;2024-03-06T09:05:41;44.10;;;24.40;;
85646;SDS011;76070;51.580;4.342;2024-03-06T09:08:07;38.08;;;23.57;;
85646;SDS011;76070;51.580;4.342;2024-03-06T09:16:04;39.20;;;23.00;;
85646;SDS011;76070;51.580;4.342;2024-03-06T09:18:30;42.55;;;21.40;;
85646;SDS011;76070;51.580;4.342;2024-03-06T09:20:57;39.88;;;23.25;;
85646;SDS011;76070;51.580;4.342;2024-03-06T09:23:23;37.67;;;20.97;;
85646;SDS011;76070;51.580;4.342;2024-03-06T09:25:51;32.08;;;19.98;;
85646;SDS011;76070;51.580;4.342;2024-03-06T09:28:19;32.50;;;19.25;;
85646;SDS011;76070;51.580;4.342;2024-03-06T09:30:46;33.42;;;20.12;;
85646;SDS011;76070;51.580;4.342;2024-03-06T09:33:12;42.13;;;22.65;;
85646;SDS011;76070;51.580;4.342;2024-03-06T09:35:39;39.08;;;21.42;;
85646;SDS011;76070;51.580;4.342;2024-03-06T09:38:07;37.67;;;20.68;;
85646;SDS011;76070;51.580;4.342;2024-03-06T09:40:35;34.70;;;20.37;;
85646;SDS011;76070;51.580;4.342;2024-03-06T09:43:02;39.60;;;22.85;;
85646;SDS011;76070;51.580;4.342;2024-03-06T09:45:29;41.65;;;23.02;;
85646;SDS011;76070;51.580;4.342;2024-03-06T09:47:55;35.50;;;20.48;;
85646;SDS011;76070;51.580;4.342;2024-03-06T09:50:22;35.20;;;20.65;;
85646;SDS011;76070;51.580;4.342;2024-03-06T09:52:51;32.65;;;22.80;;
85646;SDS011;76070;51.580;4.342;2024-03-06T09:55:19;37.98;;;21.20;;
85646;SDS011;76070;51.580;4.342;2024-03-06T09:57:46;38.45;;;21.20;;
85646;SDS011;76070;51.580;4.342;2024-03-06T10:00:13;35.75;;;20.08;;
85646;SDS011;76070;51.580;4.342;2024-03-06T10:02:51;36.23;;;21.15;;
85646;SDS011;76070;51.580;4.342;2024-03-06T10:05:20;36.33;;;22.77;;
85646;SDS011;76070;51.580;4.342;2024-03-06T10:07:47;33.50;;;20.17;;
85646;SDS011;76070;51.580;4.342;2024-03-06T10:10:14;37.65;;;19.40;;
85646;SDS011;76070;51.580;4.342;2024-03-06T10:12:41;33.42;;;18.75;;
85646;SDS011;76070;51.580;4.342;2024-03-06T10:15:08;32.50;;;20.32;;
85646;SDS011;76070;51.580;4.342;2024-03-06T10:17:36;32.10;;;18.27;;
85646;SDS011;76070;51.580;4.342;2024-03-06T10:20:19;36.58;;;19.98;;
85646;SDS011;76070;51.580;4.342;2024-03-06T10:22:49;38.10;;;21.35;;
85646;SDS011;76070;51.580;4.342;2024-03-06T10:25:14;33.70;;;20.27;;
85646;SDS011;76070;51.580;4.342;2024-03-06T10:27:40;35.65;;;18.85;;
85646;SDS011;76070;51.580;4.342;2024-03-06T10:30:09;39.98;;;21.93;;
85646;SDS011;76070;51.580;4.342;2024-03-06T10:32:38;35.23;;;20.77;;
85646;SDS011;76070;51.580;4.342;2024-03-06T10:35:04;32.80;;;21.12;;
85646;SDS011;76070;51.580;4.342;2024-03-06T10:37:32;36.45;;;20.08;;
85646;SDS011;76070;51.580;4.342;2024-03-06T10:40:01;33.60;;;19.10;;
85646;SDS011;76070;51.580;4.342;2024-03-06T10:42:29;31.95;;;19.07;;
85646;SDS011;76070;51.580;4.342;2024-03-06T10:44:56;28.30;;;19.42;;
85646;SDS011;76070;51.580;4.342;2024-03-06T10:47:24;31.60;;;19.65;;
85646;SDS011;76070;51.580;4.342;2024-03-06T10:49:52;31.40;;;18.60;;
85646;SDS011;76070;51.580;4.342;2024-03-06T10:52:19;30.95;;;18.98;;
85646;SDS011;76070;51.580;4.342;2024-03-06T10:54:46;34.65;;;19.60;;
85646;SDS011;76070;51.580;4.342;2024-03-06T11:00:17;37.45;;;20.97;;
85646;SDS011;76070;51.580;4.342;2024-03-06T11:02:47;35.85;;;18.40;;
85646;SDS011;76070;51.580;4.342;2024-03-06T11:05:14;33.98;;;20.80;;
85646;SDS011;76070;51.580;4.342;2024-03-06T11:07:41;29.90;;;18.75;;
85646;SDS011;76070;51.580;4.342;2024-03-06T11:10:09;36.25;;;21.55;;
85646;SDS011;76070;51.580;4.342;2024-03-06T11:12:38;34.53;;;21.05;;
85646;SDS011;76070;51.580;4.342;2024-03-06T11:15:16;33.33;;;21.65;;
85646;SDS011;76070;51.580;4.342;2024-03-06T11:17:43;42.25;;;23.18;;
85646;SDS011;76070;51.580;4.342;2024-03-06T11:20:13;30.57;;;20.20;;
85646;SDS011;76070;51.580;4.342;2024-03-06T11:28:10;31.48;;;20.15;;
85646;SDS011;76070;51.580;4.342;2024-03-06T11:30:48;29.92;;;19.15;;
85646;SDS011;76070;51.580;4.342;2024-03-06T11:38:46;25.37;;;15.70;;
85646;SDS011;76070;51.580;4.342;2024-03-06T11:41:11;27.67;;;16.05;;
85646;SDS011;76070;51.580;4.342;2024-03-06T11:43:45;25.95;;;15.40;;
85646;SDS011;76070;51.580;4.342;2024-03-06T11:46:08;27.58;;;15.23;;
85646;SDS011;76070;51.580;4.342;2024-03-06T11:48:36;21.82;;;16.17;;
85646;SDS011;76070;51.580;4.342;2024-03-06T11:51:02;24.95;;;15.13;;
85646;SDS011;76070;51.580;4.342;2024-03-06T11:53:30;19.45;;;14.53;;
85646;SDS011;76070;51.580;4.342;2024-03-06T11:55:57;26.65;;;17.20;;
85646;SDS011;76070;51.580;4.342;2024-03-06T11:58:24;24.30;;;16.67;;
85646;SDS011;76070;51.580;4.342;2024-03-06T12:00:50;25.02;;;14.23;;
85646;SDS011;76070;51.580;4.342;2024-03-06T12:03:17;22.67;;;14.70;;
85646;SDS011;76070;51.580;4.342;2024-03-06T12:05:44;20.95;;;12.95;;
85646;SDS011;76070;51.580;4.342;2024-03-06T12:08:11;14.98;;;9.58;;
85646;SDS011;76070;51.580;4.342;2024-03-06T12:10:38;16.37;;;10.28;;
85646;SDS011;76070;51.580;4.342;2024-03-06T12:13:05;19.50;;;11.57;;
85646;SDS011;76070;51.580;4.342;2024-03-06T12:15:31;20.10;;;11.63;;
85646;SDS011;76070;51.580;4.342;2024-03-06T12:17:58;19.37;;;12.45;;
85646;SDS011;76070;51.580;4.342;2024-03-06T12:20:24;20.45;;;11.35;;
85646;SDS011;76070;51.580;4.342;2024-03-06T12:22:51;13.15;;;10.18;;
85646;SDS011;76070;51.580;4.342;2024-03-06T12:25:22;14.78;;;11.38;;
85646;SDS011;76070;51.580;4.342;2024-03-06T12:27:49;14.85;;;8.93;;
85646;SDS011;76070;51.580;4.342;2024-03-06T12:30:16;13.05;;;9.95;;
85646;SDS011;76070;51.580;4.342;2024-03-06T12:32:55;16.00;;;9.98;;
85646;SDS011;76070;51.580;4.342;2024-03-06T12:35:11;13.22;;;8.98;;
85646;SDS011;76070;51.580;4.342;2024-03-06T12:37:38;11.18;;;8.55;;
85646;SDS011;76070;51.580;4.342;2024-03-06T12:40:05;13.65;;;9.15;;
85646;SDS011;76070;51.580;4.342;2024-03-06T12:42:33;10.03;;;8.75;;
85646;SDS011;76070;51.580;4.342;2024-03-06T12:45:00;10.82;;;8.83;;
85646;SDS011;76070;51.580;4.342;2024-03-06T12:47:28;18.12;;;9.33;;
85646;SDS011;76070;51.580;4.342;2024-03-06T12:49:55;11.88;;;9.55;;
85646;SDS011;76070;51.580;4.342;2024-03-06T12:52:21;14.28;;;9.75;;
85646;SDS011;76070;51.580;4.342;2024-03-06T12:54:48;13.25;;;9.00;;
85646;SDS011;76070;51.580;4.342;2024-03-06T12:57:15;12.60;;;8.00;;
85646;SDS011;76070;51.580;4.342;2024-03-06T12:59:41;12.88;;;7.97;;
85646;SDS011;76070;51.580;4.342;2024-03-06T13:02:08;9.50;;;7.60;;
85646;SDS011;76070;51.580;4.342;2024-03-06T13:04:34;13.20;;;8.23;;
85646;SDS011;76070;51.580;4.342;2024-03-06T13:07:01;10.10;;;7.92;;
85646;SDS011;76070;51.580;4.342;2024-03-06T13:09:27;12.95;;;8.55;;
85646;SDS011;76070;51.580;4.342;2024-03-06T13:11:54;13.10;;;8.78;;
85646;SDS011;76070;51.580;4.342;2024-03-06T13:14:20;12.20;;;9.40;;
85646;SDS011;76070;51.580;4.342;2024-03-06T13:16:47;14.25;;;10.03;;
85646;SDS011;76070;51.580;4.342;2024-03-06T13:19:13;15.00;;;10.58;;
85646;SDS011;76070;51.580;4.342;2024-03-06T13:21:40;19.60;;;12.63;;
85646;SDS011;76070;51.580;4.342;2024-03-06T13:24:06;47.58;;;31.30;;
85646;SDS011;76070;51.580;4.342;2024-03-06T13:26:33;20.90;;;11.78;;
85646;SDS011;76070;51.580;4.342;2024-03-06T13:29:01;14.73;;;11.78;;
85646;SDS011;76070;51.580;4.342;2024-03-06T13:31:28;18.17;;;12.60;;
85646;SDS011;76070;51.580;4.342;2024-03-06T13:33:56;24.52;;;13.98;;
85646;SDS011;76070;51.580;4.342;2024-03-06T13:36:23;23.42;;;15.28;;
85646;SDS011;76070;51.580;4.342;2024-03-06T13:38:49;17.23;;;12.25;;
85646;SDS011;76070;51.580;4.342;2024-03-06T13:41:16;16.50;;;10.55;;
85646;SDS011;76070;51.580;4.342;2024-03-06T13:43:43;16.05;;;9.00;;
85646;SDS011;76070;51.580;4.342;2024-03-06T13:46:10;13.50;;;11.33;;
85646;SDS011;76070;51.580;4.342;2024-03-06T13:48:37;42.62;;;28.38;;
85646;SDS011;76070;51.580;4.342;2024-03-06T13:51:03;40.15;;;28.20;;
85646;SDS011;76070;51.580;4.342;2024-03-06T13:53:30;18.27;;;11.43;;
85646;SDS011;76070;51.580;4.342;2024-03-06T13:55:57;16.00;;;8.98;;
85646;SDS011;76070;51.580;4.342;2024-03-06T13:58:24;14.93;;;9.90;;
85646;SDS011;76070;51.580;4.342;2024-03-06T14:00:51;16.17;;;9.83;;
85646;SDS011;76070;51.580;4.342;2024-03-06T14:03:18;14.73;;;10.03;;
85646;SDS011;76070;51.580;4.342;2024-03-06T14:08:38;31.30;;;20.30;;
85646;SDS011;76070;51.580;4.342;2024-03-06T14:11:06;19.42;;;14.15;;
85646;SDS011;76070;51.580;4.342;2024-03-06T14:13:33;12.33;;;9.03;;
85646;SDS011;76070;51.580;4.342;2024-03-06T14:15:59;15.72;;;9.40;;
85646;SDS011;76070;51.580;4.342;2024-03-06T14:18:26;14.58;;;9.35;;
85646;SDS011;76070;51.580;4.342;2024-03-06T14:20:52;17.50;;;10.05;;
85646;SDS011;76070;51.580;4.342;2024-03-06T14:23:19;11.45;;;10.25;;
85646;SDS011;76070;51.580;4.342;2024-03-06T14:25:46;15.93;;;9.75;;
85646;SDS011;76070;51.580;4.342;2024-03-06T14:28:12;13.40;;;9.63;;
85646;SDS011;76070;51.580;4.342;2024-03-06T14:30:39;14.93;;;8.73;;
85646;SDS011;76070;51.580;4.342;2024-03-06T14:33:05;11.22;;;8.98;;
85646;SDS011;76070;51.580;4.342;2024-03-06T14:35:32;12.90;;;8.83;;
85646;SDS011;76070;51.580;4.342;2024-03-06T14:37:58;12.85;;;9.43;;
85646;SDS011;76070;51.580;4.342;2024-03-06T14:40:25;11.93;;;9.03;;
85646;SDS011;76070;51.580;4.342;2024-03-06T14:42:52;16.73;;;9.83;;
85646;SDS011;76070;51.580;4.342;2024-03-06T14:45:18;14.50;;;10.05;;
85646;SDS011;76070;51.580;4.342;2024-03-06T14:47:45;24.15;;;11.10;;
85646;SDS011;76070;51.580;4.342;2024-03-06T14:50:11;15.58;;;11.03;;
85646;SDS011;76070;51.580;4.342;2024-03-06T14:52:38;17.80;;;11.30;;
85646;SDS011;76070;51.580;4.342;2024-03-06T14:55:05;16.87;;;9.75;;